Time;durP1;ratioP1;P1;durP2;ratioP2;P2;SDS_P1;SDS_P2;PMS_P1;PMS_P2;Temp;Humidity;BMP_temperature;BMP_pressure;BME280_temperature;BME280_humidity;BME280_pressure;Samples;Min_cycle;Max_cycle;Signal;HPM_P1;HPM_P2
2024/01/11 00:01:00;;;;;;;;;;;-2.50;99.90;;;;;;7328709;19;110305;-63
2024/01/11 00:03:27;;;;;;;;;;;-2.50;99.90;;;;;;7337208;19;111465;-64
2024/01/11 00:05:54;;;;;;;;;;;-2.60;99.90;;;;;;7327282;19;109636;-63
2024/01/11 00:08:22;;;;;;;;;;;-2.60;99.90;;;;;;7331104;19;110163;-63
2024/01/11 00:10:49;;;;;;;;;;;-2.60;99.90;;;;;;7335318;19;108995;-63
2024/01/11 00:13:16;;;;;;;;;;;-2.60;99.90;;;;;;7337196;19;110261;-64
2024/01/11 00:15:43;;;;;;;;;;;-2.60;99.90;;;;;;7338706;19;109207;-63
2024/01/11 00:18:10;;;;;;;;;;;-2.60;99.90;;;;;;7333335;19;110268;-63
2024/01/11 00:20:38;;;;;;;;;;;-2.70;99.90;;;;;;7335832;19;112788;-63
2024/01/11 00:23:05;;;;;;;;;;;-2.60;99.90;;;;;;7334231;19;108559;-63
2024/01/11 00:25:32;;;;;;;;;;;-2.60;99.90;;;;;;7342104;19;109600;-63
2024/01/11 00:27:59;;;;;;;;;;;-2.60;99.90;;;;;;7335042;19;108871;-68
2024/01/11 00:30:26;;;;;;;;;;;-2.60;99.90;;;;;;7335363;19;109696;-67
2024/01/11 00:32:54;;;;;;;;;;;-2.70;99.90;;;;;;7334684;19;109165;-63
2024/01/11 00:35:22;;;;;;;;;;;-2.60;99.90;;;;;;7335378;19;110216;-64
2024/01/11 00:37:49;;;;;;;;;;;-2.60;99.90;;;;;;7338671;19;108999;-63
2024/01/11 00:40:16;;;;;;;;;;;-2.60;99.90;;;;;;7335345;19;109630;-63
2024/01/11 00:42:43;;;;;;;;;;;-2.70;99.90;;;;;;7336417;19;108900;-63
2024/01/11 00:45:10;;;;;;;;;;;-2.70;99.90;;;;;;7332550;19;109085;-63
2024/01/11 00:47:37;;;;;;;;;;;-2.70;99.90;;;;;;7338430;19;109165;-63
2024/01/11 00:50:05;;;;;;;;;;;-2.70;99.90;;;;;;7334839;19;110048;-63
2024/01/11 00:52:32;;;;;;;;;;;-2.70;99.90;;;;;;7331769;19;109495;-63
2024/01/11 00:54:59;;;;;;;;;;;-2.70;99.90;;;;;;7333271;19;108659;-63
2024/01/11 00:57:26;;;;;;;;;;;-2.70;99.90;;;;;;7335104;19;110735;-63
2024/01/11 00:59:53;;;;;;;;;;;-2.70;99.90;;;;;;7331615;19;109843;-63
2024/01/11 01:02:20;;;;;;;;;;;-2.70;99.90;;;;;;7334603;19;111133;-65
2024/01/11 01:04:48;;;;;;;;;;;-2.70;99.90;;;;;;7334126;19;109918;-63
2024/01/11 01:07:15;;;;;;;;;;;-2.70;99.90;;;;;;7331470;19;110269;-63
2024/01/11 01:09:42;;;;;;;;;;;-2.70;99.90;;;;;;7338843;19;108497;-64
2024/01/11 01:12:09;;;;;;;;;;;-2.80;99.90;;;;;;7335437;19;110098;-64
2024/01/11 01:14:36;;;;;;;;;;;-2.80;99.90;;;;;;7338051;19;108790;-65
2024/01/11 01:17:03;;;;;;;;;;;-2.80;99.90;;;;;;7336115;19;108917;-63
2024/01/11 01:19:30;;;;;;;;;;;-2.80;99.90;;;;;;7334937;19;109407;-63
2024/01/11 01:21:57;;;;;;;;;;;-2.70;99.90;;;;;;7335526;19;108983;-63
2024/01/11 01:24:24;;;;;;;;;;;-2.70;99.90;;;;;;7333505;19;109419;-63
2024/01/11 01:26:51;;;;;;;;;;;-2.70;99.90;;;;;;7334720;19;110228;-63
2024/01/11 01:29:19;;;;;;;;;;;-2.70;99.90;;;;;;7340545;19;109047;-63
2024/01/11 01:31:46;;;;;;;;;;;-2.70;99.90;;;;;;7332520;19;109291;-63
2024/01/11 01:34:14;;;;;;;;;;;-2.70;99.90;;;;;;7336170;19;109831;-63
2024/01/11 01:36:41;;;;;;;;;;;-2.70;99.90;;;;;;7331948;19;111003;-63
2024/01/11 01:39:09;;;;;;;;;;;-2.60;99.90;;;;;;7332628;19;109487;-63
2024/01/11 01:41:37;;;;;;;;;;;-2.60;99.90;;;;;;7331180;19;109568;-63
2024/01/11 01:44:04;;;;;;;;;;;-2.60;99.90;;;;;;7333667;19;108853;-63
2024/01/11 01:46:34;;;;;;;;;;;-2.70;99.90;;;;;;7335980;19;111590;-63
2024/01/11 01:49:02;;;;;;;;;;;-2.70;99.90;;;;;;7332098;19;110358;-63
2024/01/11 01:51:29;;;;;;;;;;;-2.80;99.90;;;;;;7336789;19;109671;-63
2024/01/11 01:53:57;;;;;;;;;;;-2.80;99.90;;;;;;7330248;19;110117;-63
2024/01/11 01:56:24;;;;;;;;;;;-2.80;99.90;;;;;;7332713;19;111109;-68
2024/01/11 01:58:53;;;;;;;;;;;-2.80;99.90;;;;;;7332818;19;110767;-72
2024/01/11 02:01:21;;;;;;;;;;;-2.80;99.90;;;;;;7332096;19;109507;-65
2024/01/11 02:03:49;;;;;;;;;;;-2.90;99.90;;;;;;7333051;19;109206;-67
2024/01/11 02:06:17;;;;;;;;;;;-2.80;99.90;;;;;;7331486;19;109519;-64
2024/01/11 02:08:45;;;;;;;;;;;-2.80;99.90;;;;;;7333328;19;108622;-64
2024/01/11 02:11:13;;;;;;;;;;;-2.90;99.90;;;;;;7332248;19;109950;-63
2024/01/11 02:13:41;;;;;;;;;;;-2.90;99.90;;;;;;7336504;19;109693;-63
2024/01/11 02:16:08;;;;;;;;;;;-2.90;99.90;;;;;;7334310;19;108545;-63
2024/01/11 02:18:35;;;;;;;;;;;-2.90;99.90;;;;;;7329643;19;109413;-63
2024/01/11 02:21:04;;;;;;;;;;;-2.90;99.90;;;;;;7333171;19;109133;-64
2024/01/11 02:23:31;;;;;;;;;;;-2.90;99.90;;;;;;7333240;19;109023;-63
2024/01/11 02:25:58;;;;;;;;;;;-3.00;99.90;;;;;;7330283;19;109892;-63
2024/01/11 02:28:25;;;;;;;;;;;-2.90;99.90;;;;;;7330413;19;110422;-63
2024/01/11 02:30:52;;;;;;;;;;;-2.90;99.90;;;;;;7333935;19;108556;-63
2024/01/11 02:33:20;;;;;;;;;;;-3.00;99.90;;;;;;7332338;19;109799;-63
2024/01/11 02:35:47;;;;;;;;;;;-2.90;99.90;;;;;;7338525;19;109665;-66
2024/01/11 02:38:15;;;;;;;;;;;-3.00;99.90;;;;;;7332150;19;110150;-63
2024/01/11 02:40:43;;;;;;;;;;;-2.90;99.90;;;;;;7329695;19;111112;-63
2024/01/11 02:43:10;;;;;;;;;;;-3.00;99.90;;;;;;7330054;19;108604;-63
2024/01/11 02:45:38;;;;;;;;;;;-2.90;99.90;;;;;;7335258;19;110074;-62
2024/01/11 02:48:05;;;;;;;;;;;-2.90;99.90;;;;;;7331271;19;108469;-63
2024/01/11 02:50:35;;;;;;;;;;;-3.00;99.90;;;;;;7334828;19;109516;-64
2024/01/11 02:53:02;;;;;;;;;;;-3.00;99.90;;;;;;7329738;19;110944;-63
2024/01/11 02:55:33;;;;;;;;;;;-3.00;99.90;;;;;;7332202;19;108591;-63
2024/01/11 02:58:00;;;;;;;;;;;-3.00;99.90;;;;;;7334464;19;109042;-63
2024/01/11 03:00:27;;;;;;;;;;;-3.00;99.90;;;;;;7330537;19;108604;-63
2024/01/11 03:02:54;;;;;;;;;;;-3.00;99.90;;;;;;7331311;19;109095;-65
2024/01/11 03:05:21;;;;;;;;;;;-2.90;99.90;;;;;;7330908;19;109237;-63
2024/01/11 03:07:48;;;;;;;;;;;-3.00;99.90;;;;;;7331011;19;109803;-62
2024/01/11 03:10:16;;;;;;;;;;;-3.00;99.90;;;;;;7328631;19;110834;-62
2024/01/11 03:12:44;;;;;;;;;;;-2.90;99.90;;;;;;7329881;19;109383;-72
2024/01/11 03:15:11;;;;;;;;;;;-2.90;99.90;;;;;;7332859;19;109705;-70
2024/01/11 03:17:38;;;;;;;;;;;-2.90;99.90;;;;;;7331301;19;108405;-67
2024/01/11 03:20:05;;;;;;;;;;;-3.00;99.90;;;;;;7330831;19;110052;-63
2024/01/11 03:22:33;;;;;;;;;;;-3.00;99.90;;;;;;7330783;19;108793;-68
2024/01/11 03:25:00;;;;;;;;;;;-3.00;99.90;;;;;;7324087;19;109723;-89
2024/01/11 03:27:27;;;;;;;;;;;-2.90;99.90;;;;;;7332675;19;108834;-90
2024/01/11 03:29:54;;;;;;;;;;;-2.90;99.90;;;;;;7333027;19;112664;-89
2024/01/11 03:32:21;;;;;;;;;;;-2.80;99.90;;;;;;7333842;19;110564;-89
2024/01/11 03:34:49;;;;;;;;;;;-2.80;99.90;;;;;;7333513;19;108555;-89
2024/01/11 03:37:16;;;;;;;;;;;-2.80;99.90;;;;;;7335439;19;109252;-89
2024/01/11 03:39:43;;;;;;;;;;;-2.90;99.90;;;;;;7337960;19;113747;-88
2024/01/11 03:42:10;;;;;;;;;;;-2.90;99.90;;;;;;7334030;19;112515;-90
2024/01/11 03:44:38;;;;;;;;;;;-2.90;99.90;;;;;;7337349;19;110954;-89
2024/01/11 03:47:05;;;;;;;;;;;-3.00;99.90;;;;;;7338381;19;108532;-89
2024/01/11 03:49:32;;;;;;;;;;;-3.10;99.90;;;;;;7339945;19;109383;-88
2024/01/11 03:51:59;;;;;;;;;;;-3.10;99.90;;;;;;7339137;19;113187;-89
2024/01/11 03:54:26;;;;;;;;;;;-3.10;99.90;;;;;;7339835;19;108749;-88
2024/01/11 03:56:53;;;;;;;;;;;-3.00;99.90;;;;;;7337107;19;110633;-88
2024/01/11 03:59:20;;;;;;;;;;;-3.00;99.90;;;;;;7342375;19;110129;-88
2024/01/11 04:01:48;;;;;;;;;;;-3.00;99.90;;;;;;7347563;19;109109;-89
2024/01/11 04:04:19;;;;;;;;;;;-2.90;99.90;;;;;;7341847;19;111273;-89
2024/01/11 04:06:46;;;;;;;;;;;-3.00;99.90;;;;;;7342857;19;108478;-88
2024/01/11 04:09:16;;;;;;;;;;;-3.00;99.90;;;;;;7340335;19;110571;-89
2024/01/11 04:11:43;;;;;;;;;;;-3.10;99.90;;;;;;7342089;19;110063;-89
2024/01/11 04:14:10;;;;;;;;;;;-3.20;99.90;;;;;;7343118;19;108470;-87
2024/01/11 04:16:41;;;;;;;;;;;-3.10;99.90;;;;;;7346387;19;109085;-89
2024/01/11 04:19:08;;;;;;;;;;;-3.10;99.90;;;;;;7345413;19;110077;-89
2024/01/11 04:21:38;;;;;;;;;;;-3.10;99.90;;;;;;7360324;19;108591;-89
2024/01/11 04:24:06;;;;;;;;;;;-3.20;99.90;;;;;;7380518;19;109355;-89
2024/01/11 04:26:33;;;;;;;;;;;-3.10;99.90;;;;;;7377065;19;108645;-89
2024/01/11 04:29:01;;;;;;;;;;;-3.10;99.90;;;;;;7377527;19;108226;-89
2024/01/11 04:31:28;;;;;;;;;;;-3.20;99.90;;;;;;7381126;19;109439;-89
2024/01/11 04:33:55;;;;;;;;;;;-3.20;99.90;;;;;;7370313;19;109347;-89
2024/01/11 04:36:22;;;;;;;;;;;-3.30;99.90;;;;;;7366943;19;111659;-89
2024/01/11 04:38:50;;;;;;;;;;;-3.30;99.90;;;;;;7366993;19;111184;-88
2024/01/11 04:41:18;;;;;;;;;;;-3.30;99.90;;;;;;7364314;19;108766;-89
2024/01/11 04:43:45;;;;;;;;;;;-3.30;99.90;;;;;;7367027;19;110679;-90
2024/01/11 04:46:19;;;;;;;;;;;-3.30;99.90;;;;;;7374218;19;112205;-89
2024/01/11 04:48:47;;;;;;;;;;;-3.20;99.90;;;;;;7365152;19;110607;-88
2024/01/11 04:51:15;;;;;;;;;;;-3.30;99.90;;;;;;7366171;19;112281;-89
2024/01/11 04:53:43;;;;;;;;;;;-3.20;99.90;;;;;;7366759;19;110269;-87
2024/01/11 04:56:11;;;;;;;;;;;-3.20;99.90;;;;;;7366836;19;109716;-89
2024/01/11 04:58:39;;;;;;;;;;;-3.30;99.90;;;;;;7367009;19;109517;-89
2024/01/11 05:01:07;;;;;;;;;;;-3.30;99.90;;;;;;7366030;19;108639;-89
2024/01/11 05:03:34;;;;;;;;;;;-3.20;99.90;;;;;;7365411;19;110426;-89
2024/01/11 05:06:01;;;;;;;;;;;-3.30;99.90;;;;;;7366668;19;109240;-89
2024/01/11 05:08:29;;;;;;;;;;;-3.30;99.90;;;;;;7374454;19;108384;-88
2024/01/11 05:10:56;;;;;;;;;;;-3.30;99.90;;;;;;7366591;19;109452;-89
2024/01/11 05:13:23;;;;;;;;;;;-3.30;99.90;;;;;;7366367;19;108580;-89
2024/01/11 05:15:50;;;;;;;;;;;-3.40;99.90;;;;;;7368058;19;108324;-89
2024/01/11 05:18:17;;;;;;;;;;;-3.40;99.90;;;;;;7360958;19;113074;-89
2024/01/11 05:20:45;;;;;;;;;;;-3.50;99.90;;;;;;7362868;19;108112;-89
2024/01/11 05:23:12;;;;;;;;;;;-3.60;99.90;;;;;;7355116;19;111413;-89
2024/01/11 05:25:39;;;;;;;;;;;-3.60;99.90;;;;;;7360117;19;111957;-88
2024/01/11 05:28:06;;;;;;;;;;;-3.60;99.90;;;;;;7359474;19;108793;-89
2024/01/11 05:30:33;;;;;;;;;;;-3.60;99.90;;;;;;7362040;19;109792;-89
2024/01/11 05:33:00;;;;;;;;;;;-3.70;99.90;;;;;;7354342;19;109090;-89
2024/01/11 05:35:28;;;;;;;;;;;-3.70;99.90;;;;;;7359197;19;110863;-89
2024/01/11 05:37:55;;;;;;;;;;;-3.80;99.90;;;;;;7348643;19;112098;-89
2024/01/11 05:40:22;;;;;;;;;;;-3.80;99.90;;;;;;7345423;19;108300;-88
2024/01/11 05:42:49;;;;;;;;;;;-3.80;99.90;;;;;;7342976;19;108188;-89
2024/01/11 05:45:16;;;;;;;;;;;-3.80;99.90;;;;;;7342288;19;111881;-89
2024/01/11 05:47:50;;;;;;;;;;;-3.80;99.90;;;;;;7343000;19;108267;-89
2024/01/11 05:50:17;;;;;;;;;;;-3.80;99.90;;;;;;7345539;19;108963;-89
2024/01/11 05:52:44;;;;;;;;;;;-3.80;99.90;;;;;;7340940;19;108333;-90
2024/01/11 05:55:11;;;;;;;;;;;-3.70;99.90;;;;;;7340694;19;109609;-89
2024/01/11 05:57:38;;;;;;;;;;;-3.70;99.90;;;;;;7339511;19;110442;-89
2024/01/11 06:00:05;;;;;;;;;;;-3.70;99.90;;;;;;7339711;19;108977;-89
2024/01/11 06:02:32;;;;;;;;;;;-3.70;99.90;;;;;;7339969;19;110543;-89
2024/01/11 06:05:00;;;;;;;;;;;-3.70;99.90;;;;;;7339045;19;109157;-88
2024/01/11 06:07:28;;;;;;;;;;;-3.70;99.90;;;;;;7338932;19;109564;-89
2024/01/11 06:09:55;;;;;;;;;;;-3.70;99.90;;;;;;7337626;19;109174;-89
2024/01/11 06:12:22;;;;;;;;;;;-3.70;99.90;;;;;;7341673;19;112520;-89
2024/01/11 06:14:49;;;;;;;;;;;-3.70;99.90;;;;;;7336609;19;110335;-89
2024/01/11 06:17:16;;;;;;;;;;;-3.70;99.90;;;;;;7333752;19;111575;-89
2024/01/11 06:19:43;;;;;;;;;;;-3.70;99.90;;;;;;7339899;19;108159;-89
2024/01/11 06:22:10;;;;;;;;;;;-3.70;99.90;;;;;;7337226;19;109828;-89
2024/01/11 06:24:41;;;;;;;;;;;-3.70;99.90;;;;;;7335240;19;110560;-89
2024/01/11 06:27:09;;;;;;;;;;;-3.70;99.90;;;;;;7338130;19;108427;-88
2024/01/11 06:29:36;;;;;;;;;;;-3.70;99.90;;;;;;7336292;19;112413;-88
2024/01/11 06:32:03;;;;;;;;;;;-3.70;99.90;;;;;;7333453;19;110027;-88
2024/01/11 06:34:30;;;;;;;;;;;-3.80;99.90;;;;;;7338646;19;110475;-88
2024/01/11 06:36:57;;;;;;;;;;;-3.80;99.90;;;;;;7340717;19;110722;-88
2024/01/11 06:39:24;;;;;;;;;;;-3.70;99.90;;;;;;7335406;19;108737;-88
2024/01/11 06:41:52;;;;;;;;;;;-3.70;99.90;;;;;;7339088;19;109904;-90
2024/01/11 06:44:19;;;;;;;;;;;-3.80;99.90;;;;;;7334681;19;112924;-90
2024/01/11 06:46:46;;;;;;;;;;;-3.80;99.90;;;;;;7339438;19;108881;-90
2024/01/11 06:49:13;;;;;;;;;;;-3.70;99.90;;;;;;7335927;19;108596;-89
2024/01/11 06:51:40;;;;;;;;;;;-3.80;99.90;;;;;;7338080;19;110524;-88
2024/01/11 06:54:07;;;;;;;;;;;-3.80;99.90;;;;;;7332952;19;109094;-89
2024/01/11 06:56:35;;;;;;;;;;;-3.90;99.90;;;;;;7342320;19;109134;-88
2024/01/11 06:59:03;;;;;;;;;;;-3.90;99.90;;;;;;7334777;19;109023;-88
2024/01/11 07:01:30;;;;;;;;;;;-3.90;99.90;;;;;;7334873;19;109201;-88
2024/01/11 07:03:57;;;;;;;;;;;-3.90;99.90;;;;;;7328890;19;111941;-88
2024/01/11 07:06:24;;;;;;;;;;;-3.90;99.90;;;;;;7335261;19;108882;-89
2024/01/11 07:08:52;;;;;;;;;;;-3.90;99.90;;;;;;7333761;19;111690;-88
2024/01/11 07:11:19;;;;;;;;;;;-3.90;99.90;;;;;;7333011;19;110429;-89
2024/01/11 07:13:46;;;;;;;;;;;-3.90;99.90;;;;;;7335996;19;110322;-88
2024/01/11 07:16:13;;;;;;;;;;;-3.90;99.90;;;;;;7332666;19;113074;-88
2024/01/11 07:18:42;;;;;;;;;;;-4.00;99.90;;;;;;7340475;19;114356;-88
2024/01/11 07:21:09;;;;;;;;;;;-4.00;99.90;;;;;;7342705;19;110121;-88
2024/01/11 07:23:36;;;;;;;;;;;-4.00;99.90;;;;;;7348481;19;110291;-88
2024/01/11 07:26:06;;;;;;;;;;;-4.00;99.90;;;;;;7343910;19;108890;-90
2024/01/11 07:28:33;;;;;;;;;;;-4.00;99.90;;;;;;7353599;19;109066;-89
2024/01/11 07:31:01;;;;;;;;;;;-4.00;99.90;;;;;;7350711;19;110828;-88
2024/01/11 07:33:28;;;;;;;;;;;-4.00;99.90;;;;;;7355079;19;108759;-88
2024/01/11 07:35:55;;;;;;;;;;;-4.00;99.90;;;;;;7351324;19;109289;-88
2024/01/11 07:38:23;;;;;;;;;;;-4.00;99.90;;;;;;7355389;19;112126;-88
2024/01/11 07:40:50;;;;;;;;;;;-4.00;99.90;;;;;;7357293;19;109297;-88
2024/01/11 07:43:17;;;;;;;;;;;-3.90;99.90;;;;;;7376312;19;112787;-88
2024/01/11 07:45:44;;;;;;;;;;;-4.00;99.90;;;;;;7382248;19;110753;-88
2024/01/11 07:48:11;;;;;;;;;;;-4.00;99.90;;;;;;7381228;19;108051;-88
2024/01/11 07:50:38;;;;;;;;;;;-4.00;99.90;;;;;;7374668;19;111749;-88
2024/01/11 07:53:05;;;;;;;;;;;-4.00;99.90;;;;;;7379366;19;108208;-89
2024/01/11 07:55:32;;;;;;;;;;;-4.00;99.90;;;;;;7368766;19;110318;-88
2024/01/11 07:58:00;;;;;;;;;;;-4.00;99.90;;;;;;7348724;19;111790;-89
2024/01/11 08:00:27;;;;;;;;;;;-4.00;99.90;;;;;;7354404;19;108911;-88
2024/01/11 08:02:54;;;;;;;;;;;-3.90;99.90;;;;;;7350460;19;110122;-88
2024/01/11 08:05:21;;;;;;;;;;;-3.90;99.90;;;;;;7342958;19;111305;-88
2024/01/11 08:07:48;;;;;;;;;;;-3.80;99.90;;;;;;7338978;19;109858;-88
2024/01/11 08:10:16;;;;;;;;;;;-3.90;99.90;;;;;;7340512;19;110331;-87
2024/01/11 08:12:43;;;;;;;;;;;-3.80;99.90;;;;;;7343638;19;110578;-88
2024/01/11 08:15:12;;;;;;;;;;;-3.80;99.90;;;;;;7340345;19;109108;-87
2024/01/11 08:17:44;;;;;;;;;;;-3.70;99.90;;;;;;7337360;19;111643;-86
2024/01/11 08:20:14;;;;;;;;;;;-3.70;99.90;;;;;;7341423;19;110104;-87
2024/01/11 08:22:42;;;;;;;;;;;-3.70;99.90;;;;;;7346065;19;111355;-88
2024/01/11 08:25:10;;;;;;;;;;;-3.80;99.90;;;;;;7340114;19;109054;-87
2024/01/11 08:27:37;;;;;;;;;;;-3.80;99.90;;;;;;7339031;19;111615;-87
2024/01/11 08:30:04;;;;;;;;;;;-3.80;99.90;;;;;;7337125;19;112637;-87
2024/01/11 08:32:38;;;;;;;;;;;-3.70;99.90;;;;;;7342923;19;108769;-89
2024/01/11 08:35:09;;;;;;;;;;;-3.70;99.90;;;;;;7341650;19;109968;-88
2024/01/11 08:37:38;;;;;;;;;;;-3.70;99.90;;;;;;7338814;19;111100;-88
2024/01/11 08:40:05;;;;;;;;;;;-3.70;99.90;;;;;;7338809;19;108654;-87
2024/01/11 08:42:32;;;;;;;;;;;-3.70;99.90;;;;;;7340138;19;110439;-86
2024/01/11 08:45:06;;;;;;;;;;;-3.70;99.90;;;;;;7344140;19;110714;-88
2024/01/11 08:47:38;;;;;;;;;;;-3.60;99.90;;;;;;7341469;19;109487;-88
2024/01/11 08:50:06;;;;;;;;;;;-3.50;99.90;;;;;;7338632;19;109820;-88
2024/01/11 08:52:33;;;;;;;;;;;-3.40;99.90;;;;;;7339739;19;108390;-87
2024/01/11 08:55:04;;;;;;;;;;;-3.40;99.90;;;;;;7338230;19;109821;-87
2024/01/11 08:57:31;;;;;;;;;;;-3.40;99.90;;;;;;7338525;19;110226;-88
2024/01/11 08:59:58;;;;;;;;;;;-3.30;99.90;;;;;;7338851;19;109529;-87
2024/01/11 09:02:25;;;;;;;;;;;-3.20;99.90;;;;;;7336454;19;111318;-87
2024/01/11 09:04:53;;;;;;;;;;;-3.20;99.90;;;;;;7335779;19;109890;-87
2024/01/11 09:07:20;;;;;;;;;;;-3.20;99.90;;;;;;7344745;19;109616;-85
2024/01/11 09:09:48;;;;;;;;;;;-3.10;99.90;;;;;;7333326;19;109689;-88
2024/01/11 09:12:22;;;;;;;;;;;-3.00;99.90;;;;;;7337993;19;108771;-88
2024/01/11 09:14:50;;;;;;;;;;;-3.00;99.90;;;;;;7332085;19;111917;-87
2024/01/11 09:17:17;;;;;;;;;;;-3.00;99.90;;;;;;7334536;19;112987;-87
2024/01/11 09:19:44;;;;;;;;;;;-2.90;99.90;;;;;;7337452;19;108657;-87
2024/01/11 09:22:12;;;;;;;;;;;-2.80;99.90;;;;;;7336264;19;109755;-86
2024/01/11 09:24:39;;;;;;;;;;;-2.80;99.90;;;;;;7333147;19;109458;-87
2024/01/11 09:27:06;;;;;;;;;;;-2.70;99.90;;;;;;7336133;19;108888;-87
2024/01/11 09:29:34;;;;;;;;;;;-2.70;99.90;;;;;;7341214;19;108316;-86
2024/01/11 09:32:01;;;;;;;;;;;-2.60;99.90;;;;;;7338006;19;108881;-87
2024/01/11 09:34:28;;;;;;;;;;;-2.60;99.90;;;;;;7332932;19;110499;-87
2024/01/11 09:36:58;;;;;;;;;;;-2.50;99.90;;;;;;7335679;19;110817;-88
2024/01/11 09:39:26;;;;;;;;;;;-2.50;99.90;;;;;;7335793;19;108616;-88
2024/01/11 09:42:12;;;;;;;;;;;-2.50;99.90;;;;;;7332914;19;110063;-88
2024/01/11 09:44:40;;;;;;;;;;;-2.40;99.90;;;;;;7336048;19;110834;-87
2024/01/11 09:47:09;;;;;;;;;;;-2.30;99.90;;;;;;7335726;19;110264;-87
2024/01/11 09:49:42;;;;;;;;;;;-2.20;99.90;;;;;;7339562;19;113157;-87
2024/01/11 09:52:12;;;;;;;;;;;-2.10;99.90;;;;;;7335119;19;110635;-87
2024/01/11 09:54:40;;;;;;;;;;;-2.10;99.90;;;;;;7335400;19;109951;-86
2024/01/11 09:57:09;;;;;;;;;;;-2.10;99.90;;;;;;7333643;19;112024;-87
2024/01/11 09:59:36;;;;;;;;;;;-2.00;99.90;;;;;;7337890;19;108938;-87
2024/01/11 10:02:03;;;;;;;;;;;-2.00;99.90;;;;;;7333220;19;109428;-87
2024/01/11 10:04:30;;;;;;;;;;;-2.00;99.90;;;;;;7336792;19;110277;-87
2024/01/11 10:06:58;;;;;;;;;;;-1.90;99.90;;;;;;7333479;19;108331;-86
2024/01/11 10:09:26;;;;;;;;;;;-1.80;99.90;;;;;;7335311;19;109169;-87
2024/01/11 10:11:54;;;;;;;;;;;-1.70;99.90;;;;;;7336706;19;113049;-87
2024/01/11 10:14:21;;;;;;;;;;;-1.70;99.90;;;;;;7332476;19;108886;-87
2024/01/11 10:16:49;;;;;;;;;;;-1.60;99.90;;;;;;7332760;19;110180;-88
2024/01/11 10:19:16;;;;;;;;;;;-1.50;99.90;;;;;;7334626;19;108333;-87
2024/01/11 10:21:44;;;;;;;;;;;-1.50;99.90;;;;;;7333659;19;109507;-86
2024/01/11 10:24:17;;;;;;;;;;;-1.40;99.90;;;;;;7332393;19;110680;-87
2024/01/11 10:26:44;;;;;;;;;;;-1.40;99.90;;;;;;7331097;19;108902;-86
2024/01/11 10:29:12;;;;;;;;;;;-1.20;99.90;;;;;;7337119;19;112326;-88
2024/01/11 10:31:40;;;;;;;;;;;-1.20;99.90;;;;;;7332866;19;110478;-88
2024/01/11 10:34:08;;;;;;;;;;;-1.00;99.90;;;;;;7340232;19;108641;-87
2024/01/11 10:36:35;;;;;;;;;;;-1.10;99.90;;;;;;7333227;19;111669;-88
2024/01/11 10:39:07;;;;;;;;;;;-1.10;99.90;;;;;;7334504;19;109253;-87
2024/01/11 10:41:39;;;;;;;;;;;-1.10;99.90;;;;;;7333545;19;108977;-86
2024/01/11 10:44:11;;;;;;;;;;;-1.00;99.90;;;;;;7331258;19;110150;-87
2024/01/11 10:46:40;;;;;;;;;;;-0.90;99.90;;;;;;7335482;19;108261;-88
2024/01/11 10:49:08;;;;;;;;;;;-0.70;99.90;;;;;;7333154;19;109234;-88
2024/01/11 10:51:35;;;;;;;;;;;-0.70;99.90;;;;;;7339577;19;110140;-87
2024/01/11 10:54:04;;;;;;;;;;;-0.70;99.90;;;;;;7335569;19;108408;-87
2024/01/11 10:56:32;;;;;;;;;;;-0.50;99.90;;;;;;7339730;19;109198;-87
2024/01/11 10:59:00;;;;;;;;;;;-0.50;99.90;;;;;;7333680;19;110175;-87
2024/01/11 11:01:31;;;;;;;;;;;-0.50;99.90;;;;;;7332142;19;120084;-87
2024/01/11 11:03:59;;;;;;;;;;;-0.50;99.90;;;;;;7339732;19;110256;-88
2024/01/11 11:06:26;;;;;;;;;;;-0.50;99.90;;;;;;7342899;19;109919;-88
2024/01/11 11:08:54;;;;;;;;;;;-0.40;99.90;;;;;;7347012;19;109076;-86
2024/01/11 11:11:22;;;;;;;;;;;-0.30;99.90;;;;;;7352992;19;109737;-88
2024/01/11 11:13:49;;;;;;;;;;;-0.30;99.90;;;;;;7375921;19;108488;-88
2024/01/11 11:16:16;;;;;;;;;;;-0.20;99.90;;;;;;7371642;19;111090;-89
2024/01/11 11:18:44;;;;;;;;;;;-0.20;99.90;;;;;;7381482;19;109469;-88
2024/01/11 11:21:11;;;;;;;;;;;0.00;99.90;;;;;;7374753;19;109230;-88
2024/01/11 11:23:38;;;;;;;;;;;0.20;99.90;;;;;;7369784;19;109625;-88
2024/01/11 11:26:09;;;;;;;;;;;0.40;99.90;;;;;;7371003;19;107458;-88
2024/01/11 11:28:36;;;;;;;;;;;0.50;99.90;;;;;;7367993;19;110642;-88
2024/01/11 11:31:04;;;;;;;;;;;0.70;99.90;;;;;;7369802;19;108324;-88
2024/01/11 11:33:31;;;;;;;;;;;0.80;99.90;;;;;;7355097;19;108886;-88
2024/01/11 11:35:59;;;;;;;;;;;0.90;99.90;;;;;;7340204;19;110670;-88
2024/01/11 11:38:28;;;;;;;;;;;1.10;99.90;;;;;;7338936;19;110298;-88
2024/01/11 11:40:56;;;;;;;;;;;1.20;99.90;;;;;;7343088;19;108256;-88
2024/01/11 11:43:24;;;;;;;;;;;1.30;99.90;;;;;;7340084;19;110581;-88
2024/01/11 11:45:53;;;;;;;;;;;1.40;99.90;;;;;;7337460;19;108426;-88
2024/01/11 11:48:29;;;;;;;;;;;1.50;99.90;;;;;;7339905;19;109656;-89
2024/01/11 11:51:14;;;;;;;;;;;1.50;99.90;;;;;;7340937;19;110520;-89
2024/01/11 11:53:49;;;;;;;;;;;1.50;99.90;;;;;;7338558;19;108548;-87
2024/01/11 11:56:18;;;;;;;;;;;1.40;99.90;;;;;;7336096;19;110488;-88
2024/01/11 11:58:46;;;;;;;;;;;1.50;99.90;;;;;;7335377;19;113519;-88
2024/01/11 12:01:13;;;;;;;;;;;1.60;99.90;;;;;;7344415;19;109371;-88
2024/01/11 12:03:41;;;;;;;;;;;1.70;99.90;;;;;;7337365;19;109523;-88
2024/01/11 12:06:10;;;;;;;;;;;1.70;99.90;;;;;;7344240;19;109602;-88
2024/01/11 12:08:41;;;;;;;;;;;1.70;99.90;;;;;;7342589;19;110407;-87
2024/01/11 12:11:12;;;;;;;;;;;1.70;99.90;;;;;;7339060;19;110528;-88
2024/01/11 12:13:39;;;;;;;;;;;1.80;99.90;;;;;;7341689;19;109204;-88
2024/01/11 12:16:06;;;;;;;;;;;2.00;99.90;;;;;;7335827;19;110463;-88
2024/01/11 12:18:33;;;;;;;;;;;2.10;99.90;;;;;;7337683;19;113035;-89
2024/01/11 12:21:01;;;;;;;;;;;2.00;99.90;;;;;;7339498;19;109748;-87
2024/01/11 12:23:29;;;;;;;;;;;2.10;99.90;;;;;;7345780;19;109610;-87
2024/01/11 12:25:57;;;;;;;;;;;2.10;99.90;;;;;;7339533;19;108461;-87
2024/01/11 12:28:25;;;;;;;;;;;2.10;99.90;;;;;;7341032;19;113423;-88
2024/01/11 12:30:52;;;;;;;;;;;2.10;99.90;;;;;;7338461;19;112101;-87
2024/01/11 12:33:19;;;;;;;;;;;2.20;99.90;;;;;;7339696;19;109765;-89
2024/01/11 12:35:47;;;;;;;;;;;2.30;99.90;;;;;;7339797;19;109651;-88
2024/01/11 12:38:15;;;;;;;;;;;2.30;99.90;;;;;;7339226;19;110297;-87
2024/01/11 12:40:42;;;;;;;;;;;2.20;99.90;;;;;;7339310;19;108939;-88
2024/01/11 12:43:11;;;;;;;;;;;2.30;99.90;;;;;;7343555;19;109102;-87
2024/01/11 12:45:39;;;;;;;;;;;2.40;99.90;;;;;;7343669;19;112034;-87
2024/01/11 12:48:09;;;;;;;;;;;2.40;99.90;;;;;;7338026;19;109503;-89
2024/01/11 12:50:37;;;;;;;;;;;2.40;99.90;;;;;;7330775;19;109964;-88
2024/01/11 12:53:19;;;;;;;;;;;2.60;99.90;;;;;;7335702;19;108693;-88
2024/01/11 12:55:48;;;;;;;;;;;2.60;99.90;;;;;;7331935;19;108860;-89
2024/01/11 12:58:27;;;;;;;;;;;2.70;99.90;;;;;;7330874;19;111693;-88
2024/01/11 13:00:54;;;;;;;;;;;2.90;99.90;;;;;;7332632;19;108404;-88
2024/01/11 13:03:22;;;;;;;;;;;3.00;99.90;;;;;;7334854;19;109458;-88
2024/01/11 13:05:56;;;;;;;;;;;3.10;99.90;;;;;;7335811;19;110399;-88
2024/01/11 13:08:23;;;;;;;;;;;3.20;99.90;;;;;;7338571;19;108721;-88
2024/01/11 13:10:51;;;;;;;;;;;3.20;99.90;;;;;;7332560;19;110190;-88
2024/01/11 13:13:18;;;;;;;;;;;3.20;99.90;;;;;;7335517;19;109018;-88
2024/01/11 13:15:46;;;;;;;;;;;3.20;99.90;;;;;;7332476;19;109126;-88
2024/01/11 13:18:13;;;;;;;;;;;3.30;99.90;;;;;;7333350;19;109806;-89
2024/01/11 13:20:40;;;;;;;;;;;3.30;99.90;;;;;;7333581;19;108355;-89
2024/01/11 13:23:19;;;;;;;;;;;3.50;99.90;;;;;;7335746;19;109204;-88
2024/01/11 13:25:48;;;;;;;;;;;3.60;99.90;;;;;;7333447;19;110251;-89
2024/01/11 13:28:15;;;;;;;;;;;3.80;99.90;;;;;;7332637;19;109515;-88
2024/01/11 13:30:43;;;;;;;;;;;4.00;99.90;;;;;;7338802;19;109366;-88
2024/01/11 13:33:11;;;;;;;;;;;4.10;99.90;;;;;;7334394;19;108813;-89
2024/01/11 13:35:43;;;;;;;;;;;4.20;99.90;;;;;;7331749;19;111959;-88
2024/01/11 13:38:11;;;;;;;;;;;4.30;99.90;;;;;;7330487;19;110604;-88
2024/01/11 13:40:39;;;;;;;;;;;4.40;99.90;;;;;;7332430;19;109158;-89
2024/01/11 13:43:08;;;;;;;;;;;4.40;99.90;;;;;;7334341;19;109128;-89
2024/01/11 13:45:38;;;;;;;;;;;4.40;99.90;;;;;;7333480;19;110970;-89
2024/01/11 13:48:05;;;;;;;;;;;4.50;99.90;;;;;;7332363;19;108471;-88
2024/01/11 13:50:33;;;;;;;;;;;4.50;99.90;;;;;;7333002;19;109516;-88
2024/01/11 13:53:01;;;;;;;;;;;4.50;99.90;;;;;;7334844;19;110250;-88
2024/01/11 13:55:37;;;;;;;;;;;4.50;99.90;;;;;;7328776;19;111973;-88
2024/01/11 13:58:06;;;;;;;;;;;4.60;99.90;;;;;;7329651;19;110268;-89
2024/01/11 14:00:33;;;;;;;;;;;4.50;99.90;;;;;;7332124;19;108886;-88
2024/01/11 14:03:01;;;;;;;;;;;4.30;99.90;;;;;;7360103;19;110310;-89
2024/01/11 14:05:28;;;;;;;;;;;4.30;99.90;;;;;;7362506;19;110261;-88
2024/01/11 14:07:59;;;;;;;;;;;4.30;99.90;;;;;;7361841;19;107964;-87
2024/01/11 14:10:26;;;;;;;;;;;4.20;99.90;;;;;;7361445;19;110101;-89